METAR Formatted Surface Weather Observation
Issued by NWS

Home | Current Version | Previous Version | Text Only | Print | Product List | Glossary On
Versions: 1 2 3 4 5
000
SAUS45 KFGZ 130658 COR
MTRRQE
METAR KRQE 130653Z AUTO 00000KT 10SM FEW100 18/14 A3033 RMK AO2
SLP140 T01780139 403060156 TSNO



USA.gov is the U.S. government's official web portal to all federal, state and local government web resources and services.